METAR Data
IDs: Format: Raw Decoded Include TAF

Data at: 1249 UTC 23 Mar 2019

METAR for:PADU (Dutch Harbor/Madsen, AK, US)
Text:PADU 231218Z AUTO 30013G20KT 10SM UP FEW023 BKN030 OVC038 02/M02 A2953 RMK AO2 FZRANO PNO $
Temperature: 2.0°C ( 36°F)
Dewpoint: -2.0°C ( 28°F) [RH = 75%]
Pressure (altimeter):29.53 inches Hg (1000.1 mb)
Winds:from the WNW (300 degrees) at 15 MPH (13 knots; 6.7 m/s) gusting to 23 MPH (20 knots; 10.3 m/s)
Visibility:10 or more sm (16+ km)
Ceiling:3000 feet AGL
Clouds: few clouds at 2300 feet AGL, broken clouds at 3000 feet AGL, overcast cloud deck at 3800 feet AGL
Weather:UP (unknown precipitation)
QC Flag:automated observation with no human augmentation; SOME DATA ABOVE MAY BE INACCURATE!!!"$" is an indication the sensor requires maintenance.
Text:PADU 231205Z AUTO 29013KT 10SM BKN028 OVC038 02/M02 A2953 RMK AO2 UPE05 FZRANO PNO $
Temperature: 2.0°C ( 36°F)
Dewpoint: -2.0°C ( 28°F) [RH = 75%]
Pressure (altimeter):29.53 inches Hg (1000.1 mb)
Winds:from the WNW (290 degrees) at 15 MPH (13 knots; 6.7 m/s)
Visibility:10 or more sm (16+ km)
Ceiling:2800 feet AGL
Clouds: broken clouds at 2800 feet AGL, overcast cloud deck at 3800 feet AGL
QC Flag:automated observation with no human augmentation; SOME DATA ABOVE MAY BE INACCURATE!!!"$" is an indication the sensor requires maintenance.
Text:PADU 231156Z AUTO 29012KT 10SM UP FEW024 BKN030 OVC040 02/M02 A2952 RMK AO2 UPE03B25RAB03E25 SLP002 6//// 7//// T00171017 10022 20011 51019 FZRANO PNO $
Temperature: 1.7°C ( 35°F)
Dewpoint: -1.7°C ( 29°F) [RH = 78%]
Pressure (altimeter):29.52 inches Hg ( 999.7 mb) [Sea level pressure: 1000.2 mb]
Winds:from the WNW (290 degrees) at 14 MPH (12 knots; 6.2 m/s)
Visibility:10 or more sm (16+ km)
Ceiling:3000 feet AGL
Clouds: few clouds at 2400 feet AGL, broken clouds at 3000 feet AGL, overcast cloud deck at 4000 feet AGL
Weather:UP (unknown precipitation)
QC Flag:automated observation with no human augmentation; SOME DATA ABOVE MAY BE INACCURATE!!!"$" is an indication the sensor requires maintenance.
Text:PADU 231151Z AUTO 29013KT 10SM UP SCT024 OVC032 02/M02 A2952 RMK AO2 UPE03B25RAB03E25 FZRANO PNO $
Temperature: 2.0°C ( 36°F)
Dewpoint: -2.0°C ( 28°F) [RH = 75%]
Pressure (altimeter):29.52 inches Hg ( 999.7 mb)
Winds:from the WNW (290 degrees) at 15 MPH (13 knots; 6.7 m/s)
Visibility:10 or more sm (16+ km)
Ceiling:3200 feet AGL
Clouds: scattered clouds at 2400 feet AGL, overcast cloud deck at 3200 feet AGL
Weather:UP (unknown precipitation)
QC Flag:automated observation with no human augmentation; SOME DATA ABOVE MAY BE INACCURATE!!!"$" is an indication the sensor requires maintenance.
Text:PADU 231112Z AUTO 29012KT 8SM -RA FEW013 BKN018 OVC024 01/M01 A2951 RMK AO2 UPE03RAB03 FZRANO PNO $
Temperature: 1.0°C ( 34°F)
Dewpoint: -1.0°C ( 30°F) [RH = 86%]
Pressure (altimeter):29.51 inches Hg ( 999.4 mb)
Winds:from the WNW (290 degrees) at 14 MPH (12 knots; 6.2 m/s)
Visibility: 8 sm ( 13 km)
Ceiling:1800 feet AGL
Clouds: few clouds at 1300 feet AGL, broken clouds at 1800 feet AGL, overcast cloud deck at 2400 feet AGL
Weather:-RA (light rain)
QC Flag:automated observation with no human augmentation; SOME DATA ABOVE MAY BE INACCURATE!!!"$" is an indication the sensor requires maintenance.
Text:PADU 231056Z AUTO 30012KT 8SM UP BKN013 BKN021 OVC029 01/M01 A2950 RMK AO2 SLP995 T00111011 FZRANO PNO $
Temperature: 1.1°C ( 34°F)
Dewpoint: -1.1°C ( 30°F) [RH = 85%]
Pressure (altimeter):29.50 inches Hg ( 999.1 mb) [Sea level pressure: 999.5 mb]
Winds:from the WNW (300 degrees) at 14 MPH (12 knots; 6.2 m/s)
Visibility: 8 sm ( 13 km)
Ceiling:1300 feet AGL
Clouds: broken clouds at 1300 feet AGL, broken clouds at 2100 feet AGL, overcast cloud deck at 2900 feet AGL
Weather:UP (unknown precipitation)
QC Flag:automated observation with no human augmentation; SOME DATA ABOVE MAY BE INACCURATE!!!"$" is an indication the sensor requires maintenance.
Text:PADU 231044Z AUTO 32016KT 9SM UP SCT018 BKN024 OVC035 02/M01 A2950 RMK AO2 FZRANO PNO $
Temperature: 2.0°C ( 36°F)
Dewpoint: -1.0°C ( 30°F) [RH = 80%]
Pressure (altimeter):29.50 inches Hg ( 999.1 mb)
Winds:from the NW (320 degrees) at 18 MPH (16 knots; 8.2 m/s)
Visibility: 9 sm ( 14 km)
Ceiling:2400 feet AGL
Clouds: scattered clouds at 1800 feet AGL, broken clouds at 2400 feet AGL, overcast cloud deck at 3500 feet AGL
Weather:UP (unknown precipitation)
QC Flag:automated observation with no human augmentation; SOME DATA ABOVE MAY BE INACCURATE!!!"$" is an indication the sensor requires maintenance.
Text:PADU 230956Z AUTO 29013KT 10SM UP SCT028 BKN038 OVC048 02/M01 A2947 RMK AO2 RAE21UPB24 SLP983 T00171011 FZRANO PNO $
Temperature: 1.7°C ( 35°F)
Dewpoint: -1.1°C ( 30°F) [RH = 82%]
Pressure (altimeter):29.47 inches Hg ( 998.1 mb) [Sea level pressure: 998.3 mb]
Winds:from the WNW (290 degrees) at 15 MPH (13 knots; 6.7 m/s)
Visibility:10 or more sm (16+ km)
Ceiling:3800 feet AGL
Clouds: scattered clouds at 2800 feet AGL, broken clouds at 3800 feet AGL, overcast cloud deck at 4800 feet AGL
Weather:UP (unknown precipitation)
QC Flag:automated observation with no human augmentation; SOME DATA ABOVE MAY BE INACCURATE!!!"$" is an indication the sensor requires maintenance.
Text:PADU 230923Z AUTO 30016G20KT 10SM FEW011 BKN034 OVC043 02/M02 A2945 RMK AO2 RAE21 FZRANO PNO $
Temperature: 2.0°C ( 36°F)
Dewpoint: -2.0°C ( 28°F) [RH = 75%]
Pressure (altimeter):29.45 inches Hg ( 997.4 mb)
Winds:from the WNW (300 degrees) at 18 MPH (16 knots; 8.2 m/s) gusting to 23 MPH (20 knots; 10.3 m/s)
Visibility:10 or more sm (16+ km)
Ceiling:3400 feet AGL
Clouds: few clouds at 1100 feet AGL, broken clouds at 3400 feet AGL, overcast cloud deck at 4300 feet AGL
QC Flag:automated observation with no human augmentation; SOME DATA ABOVE MAY BE INACCURATE!!!"$" is an indication the sensor requires maintenance.
Text:PADU 230856Z AUTO 27012G16KT 8SM -RA SCT014 BKN021 OVC027 01/M01 A2944 RMK AO2 UPE43RAB43 SLP974 6//// T00111011 400221006 53030 FZRANO PNO $
Temperature: 1.1°C ( 34°F)
Dewpoint: -1.1°C ( 30°F) [RH = 85%]
Pressure (altimeter):29.44 inches Hg ( 997.0 mb) [Sea level pressure: 997.4 mb]
Winds:from the W (270 degrees) at 14 MPH (12 knots; 6.2 m/s) gusting to 18 MPH (16 knots; 8.2 m/s)
Visibility: 8 sm ( 13 km)
Ceiling:2100 feet AGL
Clouds: scattered clouds at 1400 feet AGL, broken clouds at 2100 feet AGL, overcast cloud deck at 2700 feet AGL
Weather:-RA (light rain)
QC Flag:automated observation with no human augmentation; SOME DATA ABOVE MAY BE INACCURATE!!!"$" is an indication the sensor requires maintenance.
Text:PADU 230836Z AUTO 29009KT 9SM UP SCT017 BKN027 OVC035 02/M02 A2943 RMK AO2 FZRANO PNO $
Temperature: 2.0°C ( 36°F)
Dewpoint: -2.0°C ( 28°F) [RH = 75%]
Pressure (altimeter):29.43 inches Hg ( 996.7 mb)
Winds:from the WNW (290 degrees) at 10 MPH (9 knots; 4.6 m/s)
Visibility: 9 sm ( 14 km)
Ceiling:2700 feet AGL
Clouds: scattered clouds at 1700 feet AGL, broken clouds at 2700 feet AGL, overcast cloud deck at 3500 feet AGL
Weather:UP (unknown precipitation)
QC Flag:automated observation with no human augmentation; SOME DATA ABOVE MAY BE INACCURATE!!!"$" is an indication the sensor requires maintenance.
Text:PADU 230817Z AUTO 29012KT 10SM UP FEW023 SCT028 OVC035 02/M02 A2942 RMK AO2 FZRANO PNO $
Temperature: 2.0°C ( 36°F)
Dewpoint: -2.0°C ( 28°F) [RH = 75%]
Pressure (altimeter):29.42 inches Hg ( 996.4 mb)
Winds:from the WNW (290 degrees) at 14 MPH (12 knots; 6.2 m/s)
Visibility:10 or more sm (16+ km)
Ceiling:3500 feet AGL
Clouds: few clouds at 2300 feet AGL, scattered clouds at 2800 feet AGL, overcast cloud deck at 3500 feet AGL
Weather:UP (unknown precipitation)
QC Flag:automated observation with no human augmentation; SOME DATA ABOVE MAY BE INACCURATE!!!"$" is an indication the sensor requires maintenance.
Text:PADU 230805Z AUTO 28014G20KT 9SM UP BKN025 OVC033 02/M02 A2941 RMK AO2 FZRANO PNO $
Temperature: 2.0°C ( 36°F)
Dewpoint: -2.0°C ( 28°F) [RH = 75%]
Pressure (altimeter):29.41 inches Hg ( 996.0 mb)
Winds:from the W (280 degrees) at 16 MPH (14 knots; 7.2 m/s) gusting to 23 MPH (20 knots; 10.3 m/s)
Visibility: 9 sm ( 14 km)
Ceiling:2500 feet AGL
Clouds: broken clouds at 2500 feet AGL, overcast cloud deck at 3300 feet AGL
Weather:UP (unknown precipitation)
QC Flag:automated observation with no human augmentation; SOME DATA ABOVE MAY BE INACCURATE!!!"$" is an indication the sensor requires maintenance.
Text:PADU 230756Z AUTO 30014KT 10SM UP FEW022 SCT027 OVC036 02/M02 A2941 RMK AO2 UPB01RAB29E38 SLP963 T00171022 FZRANO PNO $
Temperature: 1.7°C ( 35°F)
Dewpoint: -2.2°C ( 28°F) [RH = 75%]
Pressure (altimeter):29.41 inches Hg ( 996.0 mb) [Sea level pressure: 996.3 mb]
Winds:from the WNW (300 degrees) at 16 MPH (14 knots; 7.2 m/s)
Visibility:10 or more sm (16+ km)
Ceiling:3600 feet AGL
Clouds: few clouds at 2200 feet AGL, scattered clouds at 2700 feet AGL, overcast cloud deck at 3600 feet AGL
Weather:UP (unknown precipitation)
QC Flag:automated observation with no human augmentation; SOME DATA ABOVE MAY BE INACCURATE!!!"$" is an indication the sensor requires maintenance.
Text:PADU 230740Z AUTO 27011KT 10SM UP SCT025 OVC032 02/M02 A2940 RMK AO2 UPB01RAB29E38 FZRANO PNO $
Temperature: 2.0°C ( 36°F)
Dewpoint: -2.0°C ( 28°F) [RH = 75%]
Pressure (altimeter):29.40 inches Hg ( 995.7 mb)
Winds:from the W (270 degrees) at 13 MPH (11 knots; 5.7 m/s)
Visibility:10 or more sm (16+ km)
Ceiling:3200 feet AGL
Clouds: scattered clouds at 2500 feet AGL, overcast cloud deck at 3200 feet AGL
Weather:UP (unknown precipitation)
QC Flag:automated observation with no human augmentation; SOME DATA ABOVE MAY BE INACCURATE!!!"$" is an indication the sensor requires maintenance.
Text:PADU 230729Z AUTO 28013KT 10SM -RA BKN029 OVC036 02/M02 A2940 RMK AO2 UPB01E29RAB29 FZRANO PNO $
Temperature: 2.0°C ( 36°F)
Dewpoint: -2.0°C ( 28°F) [RH = 75%]
Pressure (altimeter):29.40 inches Hg ( 995.7 mb)
Winds:from the W (280 degrees) at 15 MPH (13 knots; 6.7 m/s)
Visibility:10 or more sm (16+ km)
Ceiling:2900 feet AGL
Clouds: broken clouds at 2900 feet AGL, overcast cloud deck at 3600 feet AGL
Weather:-RA (light rain)
QC Flag:automated observation with no human augmentation; SOME DATA ABOVE MAY BE INACCURATE!!!"$" is an indication the sensor requires maintenance.
Text:PADU 230656Z AUTO 30019G25KT 10SM OVC036 02/M03 A2938 RMK AO2 PK WND 30026/0612 UPE21RAB21E41 SLP952 T00221033 FZRANO PNO $
Temperature: 2.2°C ( 36°F)
Dewpoint: -3.3°C ( 26°F) [RH = 67%]
Pressure (altimeter):29.38 inches Hg ( 995.0 mb) [Sea level pressure: 995.2 mb]
Winds:from the WNW (300 degrees) at 22 MPH (19 knots; 9.8 m/s) gusting to 29 MPH (25 knots; 12.9 m/s)
Visibility:10 or more sm (16+ km)
Ceiling:3600 feet AGL
Clouds: overcast cloud deck at 3600 feet AGL
QC Flag:automated observation with no human augmentation; SOME DATA ABOVE MAY BE INACCURATE!!!"$" is an indication the sensor requires maintenance.

TAF for:PADU (Dutch Harbor/Madsen, AK, US) issued at 1137 UTC 23 Mar 2019
Text:PADU 231137Z 2312/2412 29012KT P6SM -RASN BKN018 OVC025
Forecast period:1200 to 1700 UTC 23 March 2019
Forecast type:FROM: standard forecast or significant change
Winds:from the WNW (290 degrees) at 14 MPH (12 knots; 6.2 m/s)
Visibility:6 or more sm (10+ km)
Ceiling:1800 feet AGL
Clouds: broken clouds at 1800 feet AGL, overcast cloud deck at 2500 feet AGL
Weather:-RA -SN (light rain, light snow)
Text:TEMPO 2312/2315 5SM -RASN BR SCT018 OVC025
Forecast period:1200 to 1500 UTC 23 March 2019
Forecast type:TEMPORARY: The following changes expected for less than half the time period
Visibility: 5 sm ( 8 km)
Ceiling:2500 feet AGL
Clouds: scattered clouds at 1800 feet AGL, overcast cloud deck at 2500 feet AGL
Weather:-RA -SN BR (light rain, light snow, mist)
Text:FM231700 27012KT P6SM BKN035
Forecast period:1700 UTC 23 March 2019 to 0000 UTC 24 March 2019
Forecast type:FROM: standard forecast or significant change
Winds:from the W (270 degrees) at 14 MPH (12 knots; 6.2 m/s)
Visibility:6 or more sm (10+ km)
Ceiling:3500 feet AGL
Clouds: broken clouds at 3500 feet AGL
Text:FM240000 20010KT P6SM BKN050
Forecast period:0000 to 1200 UTC 24 March 2019
Forecast type:FROM: standard forecast or significant change
Winds:from the SSW (200 degrees) at 12 MPH (10 knots; 5.1 m/s)
Visibility:6 or more sm (10+ km)
Ceiling:5000 feet AGL
Clouds: broken clouds at 5000 feet AGL